»·PEaware :: DCM71 KLAS-KSNA

DCM71 :: KLAS-KSNA

FLIGHT INFORMATION

Flight Status: Arrived
Operator:
DotCom
More flights by this operator :: More flights under this callsign
Pilot: Ryan C. (15122)
Aircraft: Unknown
(E35L)
More flights by this aircraft type
Origin: KLAS McCarran Intl
United States
Destination: KSNA John Wayne-Orange Co
United States
More flights between these airports :: More routes between these airports
Route: BOACH8 WHIGG FEYLA DSNEE4
File this flight plan on PilotEdge
Remarks:
Altitude:
(Current/Filed)
32,000ft
Speed:
(Current/Filed)
440kts
Departed: 03-Jan-21 08:12 PM
Arrived: 03-Jan-21 08:54 PM
Distance/Time
Traveled:
197nm/0:41
Distance/Time
To Go:
Arrived

Flight Plot

Page will automatically refresh every two minutes.

Flight plan parsing failed; only flown route is shown


Map Options




Map Legend


Flown Route
Filed Route
Departure Airport
Arrival Airport
Navaid (VOR, NDB)
Fix

Horizontal Profiles

Position Reports

Time Latitude Longitude Heading Altitude Ground
Speed
03-Jan-21 19:40 36.081210 -115.170408 89 2185ft 0kts
03-Jan-21 19:41 36.081210 -115.170408 89 2185ft 0kts
03-Jan-21 19:42 36.081210 -115.170408 89 2185ft 0kts
03-Jan-21 19:43 36.081210 -115.170408 89 2185ft 0kts
03-Jan-21 19:44 36.081210 -115.170408 89 2185ft 0kts
03-Jan-21 19:45 36.081210 -115.170408 89 2185ft 0kts
03-Jan-21 19:46 36.081210 -115.170408 89 2185ft 0kts
03-Jan-21 19:47 36.081210 -115.170408 89 2185ft 0kts
03-Jan-21 19:48 36.081210 -115.170408 89 2185ft 0kts
03-Jan-21 19:49 36.081210 -115.170408 89 2185ft 0kts
03-Jan-21 19:50 36.081210 -115.170408 89 2185ft 0kts
03-Jan-21 19:51 36.081210 -115.170408 89 2185ft 0kts
03-Jan-21 19:52 36.081210 -115.170408 89 2185ft 0kts
03-Jan-21 19:53 36.081210 -115.170408 89 2185ft 0kts
03-Jan-21 19:54 36.081210 -115.170408 89 2185ft 0kts
03-Jan-21 19:55 36.081210 -115.170408 89 2185ft 0kts
03-Jan-21 19:56 36.081210 -115.170408 89 2185ft 0kts
03-Jan-21 19:57 36.081210 -115.170408 89 2185ft 0kts
03-Jan-21 19:58 36.081210 -115.170408 89 2185ft 0kts
03-Jan-21 19:59 36.081210 -115.170408 89 2185ft 0kts
03-Jan-21 20:00 36.081210 -115.170408 89 2185ft 0kts
03-Jan-21 20:01 36.081210 -115.170408 89 2185ft 0kts
03-Jan-21 20:02 36.081210 -115.170408 89 2185ft 0kts
03-Jan-21 20:03 36.081210 -115.170408 89 2185ft 0kts
03-Jan-21 20:04 36.081136 -115.170324 42 2185ft 5kts
03-Jan-21 20:05 36.081445 -115.169940 86 2185ft 0kts
03-Jan-21 20:06 36.081464 -115.169558 85 2185ft 8kts
03-Jan-21 20:07 36.083892 -115.166965 24 2185ft 19kts
03-Jan-21 20:08 36.089410 -115.163796 24 2185ft 24kts
03-Jan-21 20:09 36.096217 -115.159901 24 2185ft 29kts
03-Jan-21 20:10 36.099775 -115.157574 82 2185ft 4kts
03-Jan-21 20:11 36.095539 -115.158830 206 2185ft 89kts
03-Jan-21 20:12 36.050818 -115.184640 205 4682ft 241kts
03-Jan-21 20:13 35.997399 -115.243165 242 7007ft 270kts
03-Jan-21 20:14 35.947792 -115.303874 188 7064ft 272kts
03-Jan-21 20:15 35.868714 -115.313778 186 11724ft 316kts
03-Jan-21 20:16 35.775132 -115.305709 176 16226ft 356kts
03-Jan-21 20:17 35.674704 -115.306084 205 20377ft 373kts
03-Jan-21 20:18 35.604140 -115.394462 233 24264ft 375kts
03-Jan-21 20:20 35.532374 -115.490864 233 27795ft 389kts
03-Jan-21 20:21 35.458817 -115.589932 234 30895ft 401kts
03-Jan-21 20:22 35.381565 -115.693912 233 32281ft 427kts
03-Jan-21 20:23 35.301351 -115.801590 233 32265ft 428kts
03-Jan-21 20:24 35.220814 -115.908857 232 32252ft 430kts
03-Jan-21 20:25 35.137660 -116.013883 232 32248ft 430kts
03-Jan-21 20:26 35.054592 -116.118424 232 32248ft 430kts
03-Jan-21 20:27 34.971169 -116.223143 231 32260ft 431kts
03-Jan-21 20:28 34.887355 -116.327968 230 32258ft 434kts
03-Jan-21 20:29 34.803711 -116.434428 230 32244ft 437kts
03-Jan-21 20:30 34.720206 -116.540555 230 30567ft 429kts
03-Jan-21 20:31 34.631788 -116.634886 223 28226ft 420kts
03-Jan-21 20:32 34.542364 -116.722380 222 25812ft 406kts
03-Jan-21 20:33 34.459669 -116.811199 227 23352ft 393kts
03-Jan-21 20:33 34.396397 -116.884750 226 20781ft 369kts
03-Jan-21 20:35 34.312893 -116.981260 226 17043ft 347kts
03-Jan-21 20:35 34.252958 -117.043178 214 14351ft 339kts
03-Jan-21 20:37 34.164738 -117.105351 205 11968ft 304kts
03-Jan-21 20:37 34.099036 -117.141259 207 11941ft 326kts
03-Jan-21 20:38 34.018666 -117.184295 207 11984ft 301kts
03-Jan-21 20:40 33.951050 -117.259936 232 9909ft 281kts
03-Jan-21 20:40 33.909623 -117.318146 232 8206ft 268kts
03-Jan-21 20:41 33.864823 -117.381442 232 7987ft 242kts
03-Jan-21 20:42 33.821259 -117.443084 236 7980ft 241kts
03-Jan-21 20:43 33.798861 -117.516553 274 7592ft 229kts
03-Jan-21 20:44 33.800801 -117.592424 273 7585ft 211kts
03-Jan-21 20:45 33.839648 -117.638593 306 6399ft 222kts
03-Jan-21 20:46 33.870338 -117.697835 301 5004ft 194kts
03-Jan-21 20:47 33.852560 -117.747586 221 4008ft 191kts
03-Jan-21 20:48 33.809530 -117.783818 209 2896ft 180kts
03-Jan-21 20:49 33.770860 -117.808414 208 2065ft 134kts
03-Jan-21 20:50 33.737937 -117.829341 208 1336ft 133kts
03-Jan-21 20:51 33.705803 -117.849732 207 627ft 128kts
03-Jan-21 20:52 33.675375 -117.869002 207 63ft 100kts
03-Jan-21 20:53 33.670285 -117.873584 343 63ft 0kts

Navigation Log

Ident Type
Flight plan parsing failed, navigation log unavailable